sensor_id;sensor_type;location;lat;lon;timestamp;P1;durP1;ratioP1;P2;durP2;ratioP2
73359;SDS011;63092;43.582;19.528;2023-06-10T00:02:07;8.90;;;5.68;;
73359;SDS011;63092;43.582;19.528;2023-06-10T00:04:33;13.55;;;6.20;;
73359;SDS011;63092;43.582;19.528;2023-06-10T00:07:01;10.10;;;6.45;;
73359;SDS011;63092;43.582;19.528;2023-06-10T00:09:28;9.60;;;5.90;;
73359;SDS011;63092;43.582;19.528;2023-06-10T00:11:54;11.15;;;5.72;;
73359;SDS011;63092;43.582;19.528;2023-06-10T00:14:20;8.38;;;5.80;;
73359;SDS011;63092;43.582;19.528;2023-06-10T00:16:46;7.43;;;5.40;;
73359;SDS011;63092;43.582;19.528;2023-06-10T00:19:11;10.13;;;5.70;;
73359;SDS011;63092;43.582;19.528;2023-06-10T00:21:39;10.63;;;5.57;;
73359;SDS011;63092;43.582;19.528;2023-06-10T00:24:10;8.85;;;5.70;;
73359;SDS011;63092;43.582;19.528;2023-06-10T00:26:37;8.20;;;5.75;;
73359;SDS011;63092;43.582;19.528;2023-06-10T00:29:06;9.20;;;5.50;;
73359;SDS011;63092;43.582;19.528;2023-06-10T00:31:33;10.75;;;5.63;;
73359;SDS011;63092;43.582;19.528;2023-06-10T00:34:00;8.00;;;4.72;;
73359;SDS011;63092;43.582;19.528;2023-06-10T00:36:27;9.55;;;5.18;;
73359;SDS011;63092;43.582;19.528;2023-06-10T00:38:53;7.20;;;5.13;;
73359;SDS011;63092;43.582;19.528;2023-06-10T00:41:19;7.65;;;5.40;;
73359;SDS011;63092;43.582;19.528;2023-06-10T00:43:45;7.63;;;5.03;;
73359;SDS011;63092;43.582;19.528;2023-06-10T00:46:11;10.05;;;5.35;;
73359;SDS011;63092;43.582;19.528;2023-06-10T00:48:37;7.28;;;4.65;;
73359;SDS011;63092;43.582;19.528;2023-06-10T00:51:04;7.70;;;5.20;;
73359;SDS011;63092;43.582;19.528;2023-06-10T00:53:31;8.02;;;4.93;;
73359;SDS011;63092;43.582;19.528;2023-06-10T00:55:58;7.97;;;5.10;;
73359;SDS011;63092;43.582;19.528;2023-06-10T00:58:24;6.75;;;5.13;;
73359;SDS011;63092;43.582;19.528;2023-06-10T01:00:50;7.68;;;5.15;;
73359;SDS011;63092;43.582;19.528;2023-06-10T01:03:17;8.93;;;4.88;;
73359;SDS011;63092;43.582;19.528;2023-06-10T01:05:43;8.63;;;4.78;;
73359;SDS011;63092;43.582;19.528;2023-06-10T01:08:33;7.10;;;5.00;;
73359;SDS011;63092;43.582;19.528;2023-06-10T01:11:07;9.65;;;5.43;;
73359;SDS011;63092;43.582;19.528;2023-06-10T01:13:38;8.57;;;4.82;;
73359;SDS011;63092;43.582;19.528;2023-06-10T01:16:06;8.13;;;5.18;;
73359;SDS011;63092;43.582;19.528;2023-06-10T01:18:32;7.85;;;5.07;;
73359;SDS011;63092;43.582;19.528;2023-06-10T01:20:58;7.10;;;5.10;;
73359;SDS011;63092;43.582;19.528;2023-06-10T01:23:24;8.00;;;5.50;;
73359;SDS011;63092;43.582;19.528;2023-06-10T01:25:55;12.65;;;5.80;;
73359;SDS011;63092;43.582;19.528;2023-06-10T01:34:26;7.85;;;4.75;;
73359;SDS011;63092;43.582;19.528;2023-06-10T01:36:53;8.30;;;4.93;;
73359;SDS011;63092;43.582;19.528;2023-06-10T01:39:22;7.77;;;5.53;;
73359;SDS011;63092;43.582;19.528;2023-06-10T01:41:50;8.05;;;5.15;;
73359;SDS011;63092;43.582;19.528;2023-06-10T01:44:22;9.75;;;5.30;;
73359;SDS011;63092;43.582;19.528;2023-06-10T01:46:48;7.47;;;4.55;;
73359;SDS011;63092;43.582;19.528;2023-06-10T01:49:14;9.23;;;5.00;;
73359;SDS011;63092;43.582;19.528;2023-06-10T01:51:40;7.90;;;5.22;;
73359;SDS011;63092;43.582;19.528;2023-06-10T01:54:06;9.68;;;4.93;;
73359;SDS011;63092;43.582;19.528;2023-06-10T01:56:32;6.57;;;4.88;;
73359;SDS011;63092;43.582;19.528;2023-06-10T01:58:58;7.88;;;5.25;;
73359;SDS011;63092;43.582;19.528;2023-06-10T02:01:24;11.43;;;5.57;;
73359;SDS011;63092;43.582;19.528;2023-06-10T02:03:51;9.80;;;5.70;;
73359;SDS011;63092;43.582;19.528;2023-06-10T02:06:16;6.65;;;5.05;;
73359;SDS011;63092;43.582;19.528;2023-06-10T02:08:42;7.03;;;5.05;;
73359;SDS011;63092;43.582;19.528;2023-06-10T02:11:08;9.48;;;5.05;;
73359;SDS011;63092;43.582;19.528;2023-06-10T02:13:33;7.05;;;5.05;;
73359;SDS011;63092;43.582;19.528;2023-06-10T02:16:00;6.68;;;4.63;;
73359;SDS011;63092;43.582;19.528;2023-06-10T02:18:26;7.25;;;4.82;;
73359;SDS011;63092;43.582;19.528;2023-06-10T02:20:53;7.10;;;5.10;;
73359;SDS011;63092;43.582;19.528;2023-06-10T02:23:19;7.95;;;5.45;;
73359;SDS011;63092;43.582;19.528;2023-06-10T02:25:45;9.50;;;4.72;;
73359;SDS011;63092;43.582;19.528;2023-06-10T02:28:12;6.75;;;5.20;;
73359;SDS011;63092;43.582;19.528;2023-06-10T02:30:39;8.23;;;5.00;;
73359;SDS011;63092;43.582;19.528;2023-06-10T02:33:06;10.65;;;5.60;;
73359;SDS011;63092;43.582;19.528;2023-06-10T02:35:35;8.00;;;5.20;;
73359;SDS011;63092;43.582;19.528;2023-06-10T02:38:03;10.40;;;5.40;;
73359;SDS011;63092;43.582;19.528;2023-06-10T02:40:29;8.15;;;5.50;;
73359;SDS011;63092;43.582;19.528;2023-06-10T02:42:55;9.35;;;5.60;;
73359;SDS011;63092;43.582;19.528;2023-06-10T02:45:20;7.22;;;5.10;;
73359;SDS011;63092;43.582;19.528;2023-06-10T02:47:46;9.65;;;5.10;;
73359;SDS011;63092;43.582;19.528;2023-06-10T02:50:12;8.60;;;5.85;;
73359;SDS011;63092;43.582;19.528;2023-06-10T02:52:38;9.10;;;5.93;;
73359;SDS011;63092;43.582;19.528;2023-06-10T02:55:04;10.50;;;5.68;;
73359;SDS011;63092;43.582;19.528;2023-06-10T02:57:30;19.33;;;7.95;;
73359;SDS011;63092;43.582;19.528;2023-06-10T02:59:56;9.48;;;6.68;;
73359;SDS011;63092;43.582;19.528;2023-06-10T03:02:23;9.00;;;6.32;;
73359;SDS011;63092;43.582;19.528;2023-06-10T03:04:53;13.20;;;7.57;;
73359;SDS011;63092;43.582;19.528;2023-06-10T03:07:20;14.88;;;7.25;;
73359;SDS011;63092;43.582;19.528;2023-06-10T03:09:46;10.63;;;6.40;;
73359;SDS011;63092;43.582;19.528;2023-06-10T03:12:12;8.73;;;5.22;;
73359;SDS011;63092;43.582;19.528;2023-06-10T03:14:38;10.00;;;6.32;;
73359;SDS011;63092;43.582;19.528;2023-06-10T03:17:04;9.93;;;6.00;;
73359;SDS011;63092;43.582;19.528;2023-06-10T03:19:30;11.25;;;6.30;;
73359;SDS011;63092;43.582;19.528;2023-06-10T03:21:58;11.80;;;5.55;;
73359;SDS011;63092;43.582;19.528;2023-06-10T03:24:33;9.52;;;5.28;;
73359;SDS011;63092;43.582;19.528;2023-06-10T03:27:00;9.38;;;5.80;;
73359;SDS011;63092;43.582;19.528;2023-06-10T03:29:27;8.52;;;5.35;;
73359;SDS011;63092;43.582;19.528;2023-06-10T03:31:52;8.60;;;5.03;;
73359;SDS011;63092;43.582;19.528;2023-06-10T03:34:18;9.13;;;5.07;;
73359;SDS011;63092;43.582;19.528;2023-06-10T03:36:45;8.63;;;5.70;;
73359;SDS011;63092;43.582;19.528;2023-06-10T03:39:10;8.35;;;5.65;;
73359;SDS011;63092;43.582;19.528;2023-06-10T03:41:36;11.02;;;5.55;;
73359;SDS011;63092;43.582;19.528;2023-06-10T03:44:02;7.57;;;5.40;;
73359;SDS011;63092;43.582;19.528;2023-06-10T03:46:28;8.55;;;5.57;;
73359;SDS011;63092;43.582;19.528;2023-06-10T03:48:54;7.80;;;5.78;;
73359;SDS011;63092;43.582;19.528;2023-06-10T03:51:20;11.65;;;5.47;;
73359;SDS011;63092;43.582;19.528;2023-06-10T03:53:46;10.57;;;4.90;;
73359;SDS011;63092;43.582;19.528;2023-06-10T03:56:12;9.43;;;5.07;;
73359;SDS011;63092;43.582;19.528;2023-06-10T03:58:38;8.15;;;5.07;;
73359;SDS011;63092;43.582;19.528;2023-06-10T04:01:04;9.40;;;5.50;;
73359;SDS011;63092;43.582;19.528;2023-06-10T04:03:29;9.68;;;5.25;;
73359;SDS011;63092;43.582;19.528;2023-06-10T04:05:55;10.60;;;6.00;;
73359;SDS011;63092;43.582;19.528;2023-06-10T04:08:21;8.48;;;5.30;;
73359;SDS011;63092;43.582;19.528;2023-06-10T04:10:47;6.82;;;5.20;;
73359;SDS011;63092;43.582;19.528;2023-06-10T04:13:12;9.30;;;5.30;;
73359;SDS011;63092;43.582;19.528;2023-06-10T04:15:39;6.95;;;4.75;;
73359;SDS011;63092;43.582;19.528;2023-06-10T04:18:06;7.35;;;5.53;;
73359;SDS011;63092;43.582;19.528;2023-06-10T04:20:32;7.65;;;5.30;;
73359;SDS011;63092;43.582;19.528;2023-06-10T04:22:57;9.02;;;5.93;;
73359;SDS011;63092;43.582;19.528;2023-06-10T04:25:24;8.35;;;5.85;;
73359;SDS011;63092;43.582;19.528;2023-06-10T04:27:51;9.20;;;5.35;;
73359;SDS011;63092;43.582;19.528;2023-06-10T04:30:17;9.13;;;5.72;;
73359;SDS011;63092;43.582;19.528;2023-06-10T04:32:43;10.32;;;5.40;;
73359;SDS011;63092;43.582;19.528;2023-06-10T04:35:11;10.05;;;5.50;;
73359;SDS011;63092;43.582;19.528;2023-06-10T04:37:37;10.57;;;6.75;;
73359;SDS011;63092;43.582;19.528;2023-06-10T04:40:03;11.75;;;7.60;;
73359;SDS011;63092;43.582;19.528;2023-06-10T04:42:30;10.15;;;5.72;;
73359;SDS011;63092;43.582;19.528;2023-06-10T04:44:56;8.45;;;5.18;;
73359;SDS011;63092;43.582;19.528;2023-06-10T04:47:22;6.47;;;5.30;;
73359;SDS011;63092;43.582;19.528;2023-06-10T04:49:48;8.68;;;5.30;;
73359;SDS011;63092;43.582;19.528;2023-06-10T04:52:14;7.38;;;5.25;;
73359;SDS011;63092;43.582;19.528;2023-06-10T04:54:39;9.35;;;5.32;;
73359;SDS011;63092;43.582;19.528;2023-06-10T04:57:06;8.45;;;5.53;;
73359;SDS011;63092;43.582;19.528;2023-06-10T04:59:32;8.10;;;5.93;;
73359;SDS011;63092;43.582;19.528;2023-06-10T05:02:02;7.05;;;5.15;;
73359;SDS011;63092;43.582;19.528;2023-06-10T05:04:28;6.65;;;5.30;;
73359;SDS011;63092;43.582;19.528;2023-06-10T05:06:54;7.47;;;5.82;;
73359;SDS011;63092;43.582;19.528;2023-06-10T05:09:20;7.30;;;5.45;;
73359;SDS011;63092;43.582;19.528;2023-06-10T05:11:46;12.93;;;10.68;;
73359;SDS011;63092;43.582;19.528;2023-06-10T05:14:12;10.82;;;6.03;;
73359;SDS011;63092;43.582;19.528;2023-06-10T05:16:38;7.82;;;5.63;;
73359;SDS011;63092;43.582;19.528;2023-06-10T05:19:04;9.43;;;5.63;;
73359;SDS011;63092;43.582;19.528;2023-06-10T05:21:30;6.78;;;5.05;;
73359;SDS011;63092;43.582;19.528;2023-06-10T05:23:55;7.22;;;5.22;;
73359;SDS011;63092;43.582;19.528;2023-06-10T05:26:21;7.45;;;5.22;;
73359;SDS011;63092;43.582;19.528;2023-06-10T05:28:47;7.82;;;5.63;;
73359;SDS011;63092;43.582;19.528;2023-06-10T05:31:13;10.77;;;6.00;;
73359;SDS011;63092;43.582;19.528;2023-06-10T05:33:39;8.35;;;6.05;;
73359;SDS011;63092;43.582;19.528;2023-06-10T05:36:05;10.75;;;5.85;;
73359;SDS011;63092;43.582;19.528;2023-06-10T05:38:31;8.05;;;5.78;;
73359;SDS011;63092;43.582;19.528;2023-06-10T05:40:56;8.63;;;5.72;;
73359;SDS011;63092;43.582;19.528;2023-06-10T05:43:23;8.32;;;5.70;;
73359;SDS011;63092;43.582;19.528;2023-06-10T05:45:49;9.98;;;5.85;;
73359;SDS011;63092;43.582;19.528;2023-06-10T05:48:15;8.63;;;5.90;;
73359;SDS011;63092;43.582;19.528;2023-06-10T05:50:41;7.65;;;6.05;;
73359;SDS011;63092;43.582;19.528;2023-06-10T05:53:09;10.32;;;6.35;;
73359;SDS011;63092;43.582;19.528;2023-06-10T05:55:41;9.13;;;6.03;;
73359;SDS011;63092;43.582;19.528;2023-06-10T05:58:07;10.32;;;6.10;;
73359;SDS011;63092;43.582;19.528;2023-06-10T06:00:33;9.30;;;6.05;;
73359;SDS011;63092;43.582;19.528;2023-06-10T06:02:59;10.40;;;5.85;;
73359;SDS011;63092;43.582;19.528;2023-06-10T06:05:25;9.23;;;6.45;;
73359;SDS011;63092;43.582;19.528;2023-06-10T06:07:50;10.05;;;6.40;;
73359;SDS011;63092;43.582;19.528;2023-06-10T06:10:17;10.23;;;6.38;;
73359;SDS011;63092;43.582;19.528;2023-06-10T06:12:43;8.65;;;6.43;;
73359;SDS011;63092;43.582;19.528;2023-06-10T06:15:10;11.25;;;6.50;;
73359;SDS011;63092;43.582;19.528;2023-06-10T06:17:36;10.02;;;6.50;;
73359;SDS011;63092;43.582;19.528;2023-06-10T06:20:02;10.20;;;5.93;;
73359;SDS011;63092;43.582;19.528;2023-06-10T06:22:29;9.48;;;6.32;;
73359;SDS011;63092;43.582;19.528;2023-06-10T06:24:55;9.23;;;6.10;;
73359;SDS011;63092;43.582;19.528;2023-06-10T06:27:20;8.20;;;5.88;;
73359;SDS011;63092;43.582;19.528;2023-06-10T06:29:49;9.43;;;6.60;;
73359;SDS011;63092;43.582;19.528;2023-06-10T06:32:15;11.52;;;6.50;;
73359;SDS011;63092;43.582;19.528;2023-06-10T06:34:41;10.10;;;6.72;;
73359;SDS011;63092;43.582;19.528;2023-06-10T06:37:07;9.77;;;6.50;;
73359;SDS011;63092;43.582;19.528;2023-06-10T06:39:33;9.02;;;6.60;;
73359;SDS011;63092;43.582;19.528;2023-06-10T06:41:58;19.33;;;7.45;;
73359;SDS011;63092;43.582;19.528;2023-06-10T06:44:24;12.73;;;7.10;;
73359;SDS011;63092;43.582;19.528;2023-06-10T06:46:50;12.00;;;6.85;;
73359;SDS011;63092;43.582;19.528;2023-06-10T06:49:15;10.05;;;7.10;;
73359;SDS011;63092;43.582;19.528;2023-06-10T06:51:41;10.00;;;6.63;;
73359;SDS011;63092;43.582;19.528;2023-06-10T06:54:07;16.67;;;11.35;;
73359;SDS011;63092;43.582;19.528;2023-06-10T06:56:32;9.68;;;6.65;;
73359;SDS011;63092;43.582;19.528;2023-06-10T06:58:58;9.57;;;6.43;;
73359;SDS011;63092;43.582;19.528;2023-06-10T07:01:24;10.88;;;6.60;;
73359;SDS011;63092;43.582;19.528;2023-06-10T07:03:50;9.93;;;6.55;;
73359;SDS011;63092;43.582;19.528;2023-06-10T07:06:15;10.38;;;6.80;;
73359;SDS011;63092;43.582;19.528;2023-06-10T07:08:41;11.02;;;6.97;;
73359;SDS011;63092;43.582;19.528;2023-06-10T07:11:07;9.60;;;6.50;;
73359;SDS011;63092;43.582;19.528;2023-06-10T07:13:32;8.93;;;6.97;;
73359;SDS011;63092;43.582;19.528;2023-06-10T07:15:58;12.93;;;7.50;;
73359;SDS011;63092;43.582;19.528;2023-06-10T07:18:24;11.07;;;7.60;;
73359;SDS011;63092;43.582;19.528;2023-06-10T07:20:50;10.18;;;7.35;;
73359;SDS011;63092;43.582;19.528;2023-06-10T07:23:15;8.95;;;7.13;;
73359;SDS011;63092;43.582;19.528;2023-06-10T07:25:41;11.43;;;8.13;;
73359;SDS011;63092;43.582;19.528;2023-06-10T07:28:07;12.13;;;7.90;;
73359;SDS011;63092;43.582;19.528;2023-06-10T07:30:32;17.85;;;12.75;;
73359;SDS011;63092;43.582;19.528;2023-06-10T07:32:58;19.42;;;13.98;;
73359;SDS011;63092;43.582;19.528;2023-06-10T07:35:24;15.45;;;10.80;;
73359;SDS011;63092;43.582;19.528;2023-06-10T07:37:50;10.27;;;7.60;;
73359;SDS011;63092;43.582;19.528;2023-06-10T07:40:15;14.50;;;10.88;;
73359;SDS011;63092;43.582;19.528;2023-06-10T07:42:41;10.07;;;7.05;;
73359;SDS011;63092;43.582;19.528;2023-06-10T07:45:08;9.98;;;7.25;;
73359;SDS011;63092;43.582;19.528;2023-06-10T07:47:34;9.98;;;7.53;;
73359;SDS011;63092;43.582;19.528;2023-06-10T07:50:00;10.57;;;8.10;;
73359;SDS011;63092;43.582;19.528;2023-06-10T07:52:25;10.48;;;8.00;;
73359;SDS011;63092;43.582;19.528;2023-06-10T07:54:53;12.30;;;9.02;;
73359;SDS011;63092;43.582;19.528;2023-06-10T07:57:19;10.52;;;7.80;;
73359;SDS011;63092;43.582;19.528;2023-06-10T07:59:45;11.63;;;8.90;;
73359;SDS011;63092;43.582;19.528;2023-06-10T08:02:10;11.10;;;7.40;;
73359;SDS011;63092;43.582;19.528;2023-06-10T08:04:36;10.18;;;7.63;;
73359;SDS011;63092;43.582;19.528;2023-06-10T08:07:02;9.88;;;7.70;;
73359;SDS011;63092;43.582;19.528;2023-06-10T08:09:28;9.73;;;7.20;;
73359;SDS011;63092;43.582;19.528;2023-06-10T08:11:54;10.18;;;7.65;;
73359;SDS011;63092;43.582;19.528;2023-06-10T08:14:20;10.77;;;7.57;;
73359;SDS011;63092;43.582;19.528;2023-06-10T08:16:46;10.98;;;7.55;;
73359;SDS011;63092;43.582;19.528;2023-06-10T08:19:12;12.93;;;8.10;;
73359;SDS011;63092;43.582;19.528;2023-06-10T08:21:38;11.77;;;7.78;;
73359;SDS011;63092;43.582;19.528;2023-06-10T08:24:05;11.85;;;8.30;;
73359;SDS011;63092;43.582;19.528;2023-06-10T08:26:31;11.30;;;8.35;;
73359;SDS011;63092;43.582;19.528;2023-06-10T08:28:57;10.88;;;8.50;;
73359;SDS011;63092;43.582;19.528;2023-06-10T08:31:23;10.20;;;8.43;;
73359;SDS011;63092;43.582;19.528;2023-06-10T08:33:49;11.23;;;8.90;;
73359;SDS011;63092;43.582;19.528;2023-06-10T08:36:15;11.02;;;8.48;;
73359;SDS011;63092;43.582;19.528;2023-06-10T08:38:40;12.80;;;9.20;;
73359;SDS011;63092;43.582;19.528;2023-06-10T08:41:06;12.13;;;9.65;;
73359;SDS011;63092;43.582;19.528;2023-06-10T08:46:08;11.90;;;9.45;;
73359;SDS011;63092;43.582;19.528;2023-06-10T08:48:35;14.75;;;10.50;;
73359;SDS011;63092;43.582;19.528;2023-06-10T08:51:06;11.35;;;9.57;;
73359;SDS011;63092;43.582;19.528;2023-06-10T08:53:34;13.18;;;9.68;;
73359;SDS011;63092;43.582;19.528;2023-06-10T08:56:03;14.40;;;9.63;;
73359;SDS011;63092;43.582;19.528;2023-06-10T08:58:31;13.95;;;10.88;;
73359;SDS011;63092;43.582;19.528;2023-06-10T09:01:10;12.98;;;10.73;;
73359;SDS011;63092;43.582;19.528;2023-06-10T09:03:37;15.00;;;11.15;;
73359;SDS011;63092;43.582;19.528;2023-06-10T09:06:04;12.43;;;10.10;;
73359;SDS011;63092;43.582;19.528;2023-06-10T09:08:31;14.00;;;10.85;;
73359;SDS011;63092;43.582;19.528;2023-06-10T09:10:59;13.85;;;11.02;;
73359;SDS011;63092;43.582;19.528;2023-06-10T09:13:25;12.32;;;9.48;;
73359;SDS011;63092;43.582;19.528;2023-06-10T09:15:51;13.30;;;10.43;;
73359;SDS011;63092;43.582;19.528;2023-06-10T09:18:16;12.90;;;10.90;;
73359;SDS011;63092;43.582;19.528;2023-06-10T09:20:43;13.02;;;10.52;;
73359;SDS011;63092;43.582;19.528;2023-06-10T09:23:09;15.27;;;11.57;;
73359;SDS011;63092;43.582;19.528;2023-06-10T09:25:38;13.38;;;10.32;;
73359;SDS011;63092;43.582;19.528;2023-06-10T09:30:31;13.07;;;10.52;;
73359;SDS011;63092;43.582;19.528;2023-06-10T09:32:59;12.40;;;10.50;;
73359;SDS011;63092;43.582;19.528;2023-06-10T09:35:26;13.48;;;11.13;;
73359;SDS011;63092;43.582;19.528;2023-06-10T09:37:55;14.27;;;10.88;;
73359;SDS011;63092;43.582;19.528;2023-06-10T09:40:22;13.27;;;11.07;;
73359;SDS011;63092;43.582;19.528;2023-06-10T09:43:06;13.90;;;10.98;;
73359;SDS011;63092;43.582;19.528;2023-06-10T09:45:32;14.88;;;11.00;;
73359;SDS011;63092;43.582;19.528;2023-06-10T09:47:58;33.88;;;21.20;;
73359;SDS011;63092;43.582;19.528;2023-06-10T09:50:24;18.48;;;14.55;;
73359;SDS011;63092;43.582;19.528;2023-06-10T09:52:50;13.70;;;11.00;;
73359;SDS011;63092;43.582;19.528;2023-06-10T09:55:17;12.90;;;11.07;;
73359;SDS011;63092;43.582;19.528;2023-06-10T09:57:43;13.07;;;9.73;;
73359;SDS011;63092;43.582;19.528;2023-06-10T10:00:13;15.43;;;11.45;;
73359;SDS011;63092;43.582;19.528;2023-06-10T10:02:49;13.48;;;10.82;;
73359;SDS011;63092;43.582;19.528;2023-06-10T10:05:16;13.32;;;10.35;;
73359;SDS011;63092;43.582;19.528;2023-06-10T10:07:43;14.98;;;11.27;;
73359;SDS011;63092;43.582;19.528;2023-06-10T10:10:10;11.82;;;10.23;;
73359;SDS011;63092;43.582;19.528;2023-06-10T10:12:40;12.40;;;10.32;;
73359;SDS011;63092;43.582;19.528;2023-06-10T10:15:07;12.60;;;10.73;;
73359;SDS011;63092;43.582;19.528;2023-06-10T10:17:34;12.23;;;10.18;;
73359;SDS011;63092;43.582;19.528;2023-06-10T10:20:05;11.90;;;10.48;;
73359;SDS011;63092;43.582;19.528;2023-06-10T10:22:40;14.15;;;10.77;;
73359;SDS011;63092;43.582;19.528;2023-06-10T10:25:12;12.30;;;9.85;;
73359;SDS011;63092;43.582;19.528;2023-06-10T10:27:43;11.82;;;10.20;;
73359;SDS011;63092;43.582;19.528;2023-06-10T10:30:14;13.73;;;10.05;;
73359;SDS011;63092;43.582;19.528;2023-06-10T10:32:45;13.48;;;10.10;;
73359;SDS011;63092;43.582;19.528;2023-06-10T10:35:19;12.25;;;9.68;;
73359;SDS011;63092;43.582;19.528;2023-06-10T10:37:48;12.30;;;10.10;;
73359;SDS011;63092;43.582;19.528;2023-06-10T10:40:16;12.73;;;10.27;;
73359;SDS011;63092;43.582;19.528;2023-06-10T10:42:42;12.43;;;10.07;;
73359;SDS011;63092;43.582;19.528;2023-06-10T10:45:10;12.23;;;9.60;;
73359;SDS011;63092;43.582;19.528;2023-06-10T10:47:36;13.15;;;10.02;;
73359;SDS011;63092;43.582;19.528;2023-06-10T10:50:12;10.90;;;8.95;;
73359;SDS011;63092;43.582;19.528;2023-06-10T10:52:56;11.85;;;9.82;;
73359;SDS011;63092;43.582;19.528;2023-06-10T10:55:26;11.00;;;9.02;;
73359;SDS011;63092;43.582;19.528;2023-06-10T10:57:53;11.38;;;9.43;;
73359;SDS011;63092;43.582;19.528;2023-06-10T11:00:24;11.25;;;9.93;;
73359;SDS011;63092;43.582;19.528;2023-06-10T11:03:00;13.38;;;9.68;;
73359;SDS011;63092;43.582;19.528;2023-06-10T11:05:33;11.98;;;9.70;;
73359;SDS011;63092;43.582;19.528;2023-06-10T11:08:03;10.90;;;8.90;;
73359;SDS011;63092;43.582;19.528;2023-06-10T11:12:57;10.50;;;9.13;;
73359;SDS011;63092;43.582;19.528;2023-06-10T11:15:24;11.55;;;10.02;;
73359;SDS011;63092;43.582;19.528;2023-06-10T11:18:11;12.07;;;8.80;;
73359;SDS011;63092;43.582;19.528;2023-06-10T11:26:09;9.70;;;7.60;;
73359;SDS011;63092;43.582;19.528;2023-06-10T11:28:38;9.40;;;7.32;;
73359;SDS011;63092;43.582;19.528;2023-06-10T11:31:04;9.13;;;6.50;;
73359;SDS011;63092;43.582;19.528;2023-06-10T11:33:30;10.27;;;8.70;;
73359;SDS011;63092;43.582;19.528;2023-06-10T11:35:57;21.17;;;8.20;;
73359;SDS011;63092;43.582;19.528;2023-06-10T11:38:25;10.27;;;7.47;;
73359;SDS011;63092;43.582;19.528;2023-06-10T11:40:53;9.57;;;7.82;;
73359;SDS011;63092;43.582;19.528;2023-06-10T11:43:19;8.98;;;7.38;;
73359;SDS011;63092;43.582;19.528;2023-06-10T11:45:45;8.52;;;7.53;;
73359;SDS011;63092;43.582;19.528;2023-06-10T11:48:12;9.30;;;8.20;;
73359;SDS011;63092;43.582;19.528;2023-06-10T11:50:38;10.80;;;8.07;;
73359;SDS011;63092;43.582;19.528;2023-06-10T11:53:07;8.33;;;6.93;;
73359;SDS011;63092;43.582;19.528;2023-06-10T11:55:44;12.80;;;10.45;;
73359;SDS011;63092;43.582;19.528;2023-06-10T12:03:13;10.75;;;5.90;;
73359;SDS011;63092;43.582;19.528;2023-06-10T12:05:38;8.60;;;6.35;;
73359;SDS011;63092;43.582;19.528;2023-06-10T12:08:08;9.60;;;6.85;;
73359;SDS011;63092;43.582;19.528;2023-06-10T12:10:43;8.35;;;6.05;;
73359;SDS011;63092;43.582;19.528;2023-06-10T12:13:09;6.93;;;5.75;;
73359;SDS011;63092;43.582;19.528;2023-06-10T12:15:35;27.30;;;19.92;;
73359;SDS011;63092;43.582;19.528;2023-06-10T12:18:01;21.02;;;15.95;;
73359;SDS011;63092;43.582;19.528;2023-06-10T12:20:28;9.23;;;6.85;;
73359;SDS011;63092;43.582;19.528;2023-06-10T12:22:55;10.18;;;8.15;;
73359;SDS011;63092;43.582;19.528;2023-06-10T12:25:27;9.68;;;8.40;;
73359;SDS011;63092;43.582;19.528;2023-06-10T12:27:56;11.10;;;8.25;;
73359;SDS011;63092;43.582;19.528;2023-06-10T12:32:50;13.02;;;10.02;;
73359;SDS011;63092;43.582;19.528;2023-06-10T12:35:20;15.35;;;11.32;;
73359;SDS011;63092;43.582;19.528;2023-06-10T12:40:30;12.95;;;9.15;;
73359;SDS011;63092;43.582;19.528;2023-06-10T12:42:57;16.90;;;10.75;;
73359;SDS011;63092;43.582;19.528;2023-06-10T12:45:27;12.27;;;9.93;;
73359;SDS011;63092;43.582;19.528;2023-06-10T12:48:04;13.20;;;10.13;;
73359;SDS011;63092;43.582;19.528;2023-06-10T12:50:38;13.32;;;9.98;;
73359;SDS011;63092;43.582;19.528;2023-06-10T12:53:04;11.90;;;10.05;;
73359;SDS011;63092;43.582;19.528;2023-06-10T12:55:31;12.93;;;9.85;;
73359;SDS011;63092;43.582;19.528;2023-06-10T12:57:58;12.35;;;9.82;;
73359;SDS011;63092;43.582;19.528;2023-06-10T13:00:25;10.75;;;9.13;;
73359;SDS011;63092;43.582;19.528;2023-06-10T13:02:54;9.77;;;8.43;;
73359;SDS011;63092;43.582;19.528;2023-06-10T13:05:19;10.70;;;8.27;;
73359;SDS011;63092;43.582;19.528;2023-06-10T13:07:46;9.85;;;7.90;;
73359;SDS011;63092;43.582;19.528;2023-06-10T13:10:12;10.77;;;9.07;;
73359;SDS011;63092;43.582;19.528;2023-06-10T13:12:39;11.75;;;9.20;;
73359;SDS011;63092;43.582;19.528;2023-06-10T13:15:05;9.05;;;7.72;;
73359;SDS011;63092;43.582;19.528;2023-06-10T13:17:32;10.43;;;8.88;;
73359;SDS011;63092;43.582;19.528;2023-06-10T13:20:02;11.10;;;9.00;;
73359;SDS011;63092;43.582;19.528;2023-06-10T13:22:32;11.60;;;8.98;;
73359;SDS011;63092;43.582;19.528;2023-06-10T13:25:00;8.60;;;7.18;;
73359;SDS011;63092;43.582;19.528;2023-06-10T13:27:26;9.77;;;7.80;;
73359;SDS011;63092;43.582;19.528;2023-06-10T13:29:52;9.15;;;7.70;;
73359;SDS011;63092;43.582;19.528;2023-06-10T13:32:18;10.73;;;8.23;;
73359;SDS011;63092;43.582;19.528;2023-06-10T13:34:44;10.07;;;7.70;;
73359;SDS011;63092;43.582;19.528;2023-06-10T13:37:10;11.45;;;8.68;;
73359;SDS011;63092;43.582;19.528;2023-06-10T13:39:37;10.02;;;7.45;;
73359;SDS011;63092;43.582;19.528;2023-06-10T13:42:04;8.93;;;7.72;;
73359;SDS011;63092;43.582;19.528;2023-06-10T13:44:31;9.25;;;6.72;;
73359;SDS011;63092;43.582;19.528;2023-06-10T13:46:59;8.60;;;7.30;;
73359;SDS011;63092;43.582;19.528;2023-06-10T13:49:24;8.48;;;6.95;;
73359;SDS011;63092;43.582;19.528;2023-06-10T13:51:50;8.70;;;6.00;;
73359;SDS011;63092;43.582;19.528;2023-06-10T13:54:16;7.50;;;6.35;;
73359;SDS011;63092;43.582;19.528;2023-06-10T13:56:41;8.07;;;6.18;;
73359;SDS011;63092;43.582;19.528;2023-06-10T13:59:07;6.65;;;5.38;;
73359;SDS011;63092;43.582;19.528;2023-06-10T14:01:33;7.75;;;5.93;;
73359;SDS011;63092;43.582;19.528;2023-06-10T14:03:59;7.95;;;6.10;;
73359;SDS011;63092;43.582;19.528;2023-06-10T14:06:25;8.38;;;6.38;;
73359;SDS011;63092;43.582;19.528;2023-06-10T14:08:51;9.00;;;6.50;;
73359;SDS011;63092;43.582;19.528;2023-06-10T14:11:19;19.45;;;13.05;;
73359;SDS011;63092;43.582;19.528;2023-06-10T14:13:46;9.93;;;7.78;;
73359;SDS011;63092;43.582;19.528;2023-06-10T14:16:12;8.80;;;6.90;;
73359;SDS011;63092;43.582;19.528;2023-06-10T14:18:37;10.10;;;7.40;;
73359;SDS011;63092;43.582;19.528;2023-06-10T14:21:03;9.13;;;6.88;;
73359;SDS011;63092;43.582;19.528;2023-06-10T14:23:29;8.77;;;7.10;;
73359;SDS011;63092;43.582;19.528;2023-06-10T14:25:55;10.00;;;7.30;;
73359;SDS011;63092;43.582;19.528;2023-06-10T14:28:21;8.73;;;6.82;;
73359;SDS011;63092;43.582;19.528;2023-06-10T14:30:46;10.88;;;7.60;;
73359;SDS011;63092;43.582;19.528;2023-06-10T14:33:12;9.30;;;7.40;;
73359;SDS011;63092;43.582;19.528;2023-06-10T14:35:38;9.30;;;7.63;;
73359;SDS011;63092;43.582;19.528;2023-06-10T14:38:03;9.27;;;7.53;;
73359;SDS011;63092;43.582;19.528;2023-06-10T14:40:29;9.13;;;6.20;;
73359;SDS011;63092;43.582;19.528;2023-06-10T14:42:56;8.13;;;6.72;;
73359;SDS011;63092;43.582;19.528;2023-06-10T14:45:22;7.97;;;6.70;;
73359;SDS011;63092;43.582;19.528;2023-06-10T14:47:50;8.88;;;7.35;;
73359;SDS011;63092;43.582;19.528;2023-06-10T14:50:16;11.18;;;7.30;;
73359;SDS011;63092;43.582;19.528;2023-06-10T14:52:41;10.15;;;6.97;;
73359;SDS011;63092;43.582;19.528;2023-06-10T14:55:08;10.23;;;6.80;;